sensor_id;sensor_type;location;lat;lon;timestamp;P1;durP1;ratioP1;P2;durP2;ratioP2
58466;SDS011;44255;49.244;7.726;2023-02-28T04:30:37;6.75;;;3.80;;
58466;SDS011;44255;49.244;7.726;2023-02-28T04:33:03;8.43;;;3.25;;
58466;SDS011;44255;49.244;7.726;2023-02-28T04:37:53;6.57;;;3.60;;
58466;SDS011;44255;49.244;7.726;2023-02-28T04:42:44;4.82;;;2.65;;
58466;SDS011;44255;49.244;7.726;2023-02-28T04:47:35;6.68;;;3.70;;
58466;SDS011;44255;49.244;7.726;2023-02-28T04:52:27;6.28;;;3.05;;
58466;SDS011;44255;49.244;7.726;2023-02-28T04:54:52;6.18;;;3.20;;
58466;SDS011;44255;49.244;7.726;2023-02-28T04:59:43;3.72;;;2.70;;
58466;SDS011;44255;49.244;7.726;2023-02-28T05:04:34;8.38;;;3.75;;
58466;SDS011;44255;49.244;7.726;2023-02-28T05:09:25;5.65;;;3.25;;
58466;SDS011;44255;49.244;7.726;2023-02-28T05:14:16;4.88;;;3.03;;
58466;SDS011;44255;49.244;7.726;2023-02-28T05:19:06;5.47;;;3.30;;
58466;SDS011;44255;49.244;7.726;2023-02-28T05:23:59;6.60;;;3.10;;
58466;SDS011;44255;49.244;7.726;2023-02-28T05:26:27;7.38;;;3.78;;
58466;SDS011;44255;49.244;7.726;2023-02-28T05:31:18;6.47;;;3.53;;
58466;SDS011;44255;49.244;7.726;2023-02-28T05:36:09;9.68;;;3.55;;
58466;SDS011;44255;49.244;7.726;2023-02-28T05:40:59;6.45;;;3.70;;
58466;SDS011;44255;49.244;7.726;2023-02-28T05:45:50;8.38;;;3.78;;
58466;SDS011;44255;49.244;7.726;2023-02-28T05:50:41;6.07;;;3.47;;
58466;SDS011;44255;49.244;7.726;2023-02-28T05:55:32;7.50;;;4.20;;
58466;SDS011;44255;49.244;7.726;2023-02-28T06:00:23;10.93;;;4.57;;
58466;SDS011;44255;49.244;7.726;2023-02-28T06:02:50;10.98;;;4.40;;
58466;SDS011;44255;49.244;7.726;2023-02-28T06:05:16;17.17;;;7.82;;
58466;SDS011;44255;49.244;7.726;2023-02-28T06:07:42;18.85;;;7.75;;
58466;SDS011;44255;49.244;7.726;2023-02-28T06:12:34;10.43;;;5.40;;
58466;SDS011;44255;49.244;7.726;2023-02-28T06:17:25;10.73;;;4.88;;
58466;SDS011;44255;49.244;7.726;2023-02-28T06:22:15;12.52;;;4.40;;
58466;SDS011;44255;49.244;7.726;2023-02-28T06:27:06;7.60;;;4.18;;
58466;SDS011;44255;49.244;7.726;2023-02-28T06:31:57;9.27;;;4.35;;
58466;SDS011;44255;49.244;7.726;2023-02-28T06:36:49;7.68;;;3.55;;
58466;SDS011;44255;49.244;7.726;2023-02-28T06:39:15;6.32;;;4.00;;
58466;SDS011;44255;49.244;7.726;2023-02-28T06:41:41;8.85;;;4.22;;
58466;SDS011;44255;49.244;7.726;2023-02-28T06:46:40;6.60;;;3.70;;
58466;SDS011;44255;49.244;7.726;2023-02-28T06:49:07;8.50;;;4.20;;
58466;SDS011;44255;49.244;7.726;2023-02-28T06:51:34;6.97;;;4.05;;
58466;SDS011;44255;49.244;7.726;2023-02-28T06:56:25;6.53;;;3.75;;
58466;SDS011;44255;49.244;7.726;2023-02-28T07:01:17;7.85;;;4.03;;
58466;SDS011;44255;49.244;7.726;2023-02-28T07:03:43;8.32;;;4.10;;
58466;SDS011;44255;49.244;7.726;2023-02-28T07:06:09;7.75;;;4.75;;
58466;SDS011;44255;49.244;7.726;2023-02-28T07:08:35;6.22;;;4.30;;
58466;SDS011;44255;49.244;7.726;2023-02-28T07:13:26;6.80;;;4.10;;
58466;SDS011;44255;49.244;7.726;2023-02-28T07:18:20;6.32;;;3.53;;
58466;SDS011;44255;49.244;7.726;2023-02-28T07:20:46;6.90;;;3.92;;
58466;SDS011;44255;49.244;7.726;2023-02-28T07:25:36;6.88;;;3.47;;
58466;SDS011;44255;49.244;7.726;2023-02-28T07:30:27;5.63;;;3.88;;
58466;SDS011;44255;49.244;7.726;2023-02-28T07:35:19;6.95;;;4.15;;
58466;SDS011;44255;49.244;7.726;2023-02-28T07:40:12;7.20;;;3.95;;
58466;SDS011;44255;49.244;7.726;2023-02-28T07:45:03;9.95;;;3.50;;
58466;SDS011;44255;49.244;7.726;2023-02-28T07:47:30;9.85;;;4.45;;
58466;SDS011;44255;49.244;7.726;2023-02-28T07:52:21;11.85;;;5.30;;
58466;SDS011;44255;49.244;7.726;2023-02-28T07:54:48;9.60;;;4.47;;
58466;SDS011;44255;49.244;7.726;2023-02-28T07:57:14;7.05;;;4.28;;
58466;SDS011;44255;49.244;7.726;2023-02-28T07:59:39;6.78;;;4.05;;
58466;SDS011;44255;49.244;7.726;2023-02-28T08:04:31;7.85;;;4.57;;
58466;SDS011;44255;49.244;7.726;2023-02-28T08:06:57;10.43;;;4.47;;
58466;SDS011;44255;49.244;7.726;2023-02-28T08:09:22;8.40;;;4.45;;
58466;SDS011;44255;49.244;7.726;2023-02-28T08:11:47;8.57;;;4.60;;
58466;SDS011;44255;49.244;7.726;2023-02-28T08:16:38;9.13;;;4.45;;
58466;SDS011;44255;49.244;7.726;2023-02-28T08:21:29;9.77;;;4.50;;
58466;SDS011;44255;49.244;7.726;2023-02-28T08:23:54;8.40;;;4.72;;
58466;SDS011;44255;49.244;7.726;2023-02-28T08:26:21;9.23;;;4.78;;
58466;SDS011;44255;49.244;7.726;2023-02-28T08:28:46;8.73;;;4.50;;
58466;SDS011;44255;49.244;7.726;2023-02-28T08:33:39;12.63;;;4.25;;
58466;SDS011;44255;49.244;7.726;2023-02-28T08:36:06;9.95;;;4.32;;
58466;SDS011;44255;49.244;7.726;2023-02-28T08:38:32;9.75;;;4.35;;
58466;SDS011;44255;49.244;7.726;2023-02-28T08:40:58;6.25;;;3.90;;
58466;SDS011;44255;49.244;7.726;2023-02-28T08:43:25;7.15;;;4.28;;
58466;SDS011;44255;49.244;7.726;2023-02-28T08:45:54;10.88;;;4.88;;
58466;SDS011;44255;49.244;7.726;2023-02-28T08:48:22;8.52;;;4.63;;
58466;SDS011;44255;49.244;7.726;2023-02-28T08:50:56;7.10;;;4.22;;
58466;SDS011;44255;49.244;7.726;2023-02-28T08:53:22;6.90;;;4.38;;
58466;SDS011;44255;49.244;7.726;2023-02-28T08:55:54;10.55;;;4.82;;
58466;SDS011;44255;49.244;7.726;2023-02-28T08:58:22;8.55;;;4.60;;
58466;SDS011;44255;49.244;7.726;2023-02-28T09:00:48;8.07;;;4.72;;
58466;SDS011;44255;49.244;7.726;2023-02-28T09:03:13;8.60;;;4.22;;
58466;SDS011;44255;49.244;7.726;2023-02-28T09:05:38;8.70;;;5.13;;
58466;SDS011;44255;49.244;7.726;2023-02-28T09:08:03;11.20;;;4.37;;
58466;SDS011;44255;49.244;7.726;2023-02-28T09:10:29;8.13;;;4.95;;
58466;SDS011;44255;49.244;7.726;2023-02-28T09:12:54;10.38;;;4.75;;
58466;SDS011;44255;49.244;7.726;2023-02-28T09:15:19;7.85;;;4.00;;
58466;SDS011;44255;49.244;7.726;2023-02-28T09:17:45;11.48;;;5.07;;
58466;SDS011;44255;49.244;7.726;2023-02-28T09:20:10;9.52;;;5.05;;
58466;SDS011;44255;49.244;7.726;2023-02-28T09:22:36;10.05;;;4.55;;
58466;SDS011;44255;49.244;7.726;2023-02-28T09:25:01;8.57;;;4.75;;
58466;SDS011;44255;49.244;7.726;2023-02-28T09:27:26;8.15;;;4.93;;
58466;SDS011;44255;49.244;7.726;2023-02-28T09:29:52;10.45;;;4.68;;
58466;SDS011;44255;49.244;7.726;2023-02-28T09:32:17;7.78;;;4.53;;
58466;SDS011;44255;49.244;7.726;2023-02-28T09:37:08;9.05;;;5.13;;
58466;SDS011;44255;49.244;7.726;2023-02-28T09:39:33;12.13;;;5.43;;
58466;SDS011;44255;49.244;7.726;2023-02-28T09:41:58;8.60;;;4.70;;
58466;SDS011;44255;49.244;7.726;2023-02-28T09:44:31;11.60;;;5.60;;
58466;SDS011;44255;49.244;7.726;2023-02-28T09:47:05;9.05;;;4.93;;
58466;SDS011;44255;49.244;7.726;2023-02-28T09:49:41;7.80;;;4.82;;
58466;SDS011;44255;49.244;7.726;2023-02-28T09:52:14;8.75;;;4.88;;
58466;SDS011;44255;49.244;7.726;2023-02-28T09:54:44;10.35;;;5.75;;
58466;SDS011;44255;49.244;7.726;2023-02-28T09:57:24;7.65;;;5.07;;
58466;SDS011;44255;49.244;7.726;2023-02-28T10:02:53;8.13;;;5.30;;
58466;SDS011;44255;49.244;7.726;2023-02-28T10:05:30;9.48;;;5.05;;
58466;SDS011;44255;49.244;7.726;2023-02-28T10:08:18;8.40;;;5.22;;
58466;SDS011;44255;49.244;7.726;2023-02-28T10:10:51;8.13;;;4.88;;
58466;SDS011;44255;49.244;7.726;2023-02-28T10:15:55;11.13;;;5.45;;
58466;SDS011;44255;49.244;7.726;2023-02-28T10:18:26;12.32;;;6.28;;
58466;SDS011;44255;49.244;7.726;2023-02-28T10:20:55;7.95;;;4.57;;
58466;SDS011;44255;49.244;7.726;2023-02-28T10:25:53;7.97;;;5.00;;
58466;SDS011;44255;49.244;7.726;2023-02-28T10:28:23;9.38;;;5.60;;
58466;SDS011;44255;49.244;7.726;2023-02-28T10:30:51;8.82;;;4.75;;
58466;SDS011;44255;49.244;7.726;2023-02-28T10:33:20;11.75;;;6.13;;
58466;SDS011;44255;49.244;7.726;2023-02-28T10:35:48;10.45;;;5.80;;
58466;SDS011;44255;49.244;7.726;2023-02-28T10:38:16;9.70;;;5.38;;
58466;SDS011;44255;49.244;7.726;2023-02-28T10:40:44;8.07;;;5.32;;
58466;SDS011;44255;49.244;7.726;2023-02-28T10:45:38;11.30;;;5.40;;
58466;SDS011;44255;49.244;7.726;2023-02-28T10:50:36;10.27;;;5.22;;
58466;SDS011;44255;49.244;7.726;2023-02-28T10:55:40;8.60;;;5.47;;
58466;SDS011;44255;49.244;7.726;2023-02-28T10:58:22;13.27;;;5.70;;
58466;SDS011;44255;49.244;7.726;2023-02-28T11:00:49;11.55;;;5.80;;
58466;SDS011;44255;49.244;7.726;2023-02-28T11:05:45;12.57;;;5.53;;
58466;SDS011;44255;49.244;7.726;2023-02-28T11:10:38;12.50;;;5.72;;
58466;SDS011;44255;49.244;7.726;2023-02-28T11:13:13;9.32;;;5.45;;
58466;SDS011;44255;49.244;7.726;2023-02-28T11:15:55;9.02;;;5.07;;
58466;SDS011;44255;49.244;7.726;2023-02-28T11:20:52;8.93;;;5.00;;
58466;SDS011;44255;49.244;7.726;2023-02-28T11:23:20;11.10;;;5.38;;
58466;SDS011;44255;49.244;7.726;2023-02-28T11:25:50;9.93;;;5.63;;
58466;SDS011;44255;49.244;7.726;2023-02-28T11:31:26;10.70;;;5.30;;
58466;SDS011;44255;49.244;7.726;2023-02-28T11:33:52;12.25;;;6.13;;
58466;SDS011;44255;49.244;7.726;2023-02-28T11:36:23;11.65;;;5.93;;
58466;SDS011;44255;49.244;7.726;2023-02-28T11:38:50;11.35;;;5.25;;
58466;SDS011;44255;49.244;7.726;2023-02-28T11:41:36;13.10;;;5.88;;
58466;SDS011;44255;49.244;7.726;2023-02-28T11:44:23;14.07;;;6.10;;
58466;SDS011;44255;49.244;7.726;2023-02-28T11:50:42;11.23;;;5.82;;
58466;SDS011;44255;49.244;7.726;2023-02-28T11:58:49;14.02;;;6.22;;
58466;SDS011;44255;49.244;7.726;2023-02-28T12:04:34;11.02;;;5.82;;
58466;SDS011;44255;49.244;7.726;2023-02-28T12:12:57;15.15;;;7.10;;
58466;SDS011;44255;49.244;7.726;2023-02-28T12:18:58;10.68;;;5.35;;
58466;SDS011;44255;49.244;7.726;2023-02-28T12:24:17;10.45;;;5.93;;
58466;SDS011;44255;49.244;7.726;2023-02-28T12:26:54;13.05;;;6.28;;
58466;SDS011;44255;49.244;7.726;2023-02-28T12:29:29;10.77;;;5.80;;
58466;SDS011;44255;49.244;7.726;2023-02-28T12:31:59;8.60;;;5.38;;
58466;SDS011;44255;49.244;7.726;2023-02-28T12:34:37;10.55;;;6.20;;
58466;SDS011;44255;49.244;7.726;2023-02-28T12:37:07;10.98;;;6.15;;
58466;SDS011;44255;49.244;7.726;2023-02-28T12:39:41;9.63;;;5.88;;
58466;SDS011;44255;49.244;7.726;2023-02-28T12:42:17;10.45;;;5.65;;
58466;SDS011;44255;49.244;7.726;2023-02-28T12:44:49;10.50;;;5.57;;
58466;SDS011;44255;49.244;7.726;2023-02-28T12:47:19;10.18;;;6.65;;
58466;SDS011;44255;49.244;7.726;2023-02-28T12:49:54;9.23;;;5.95;;
58466;SDS011;44255;49.244;7.726;2023-02-28T12:52:39;8.75;;;5.75;;
58466;SDS011;44255;49.244;7.726;2023-02-28T12:55:29;8.02;;;5.95;;
58466;SDS011;44255;49.244;7.726;2023-02-28T13:09:36;8.25;;;5.90;;
58466;SDS011;44255;49.244;7.726;2023-02-28T13:12:07;9.48;;;6.95;;
58466;SDS011;44255;49.244;7.726;2023-02-28T13:14:38;7.93;;;6.53;;
58466;SDS011;44255;49.244;7.726;2023-02-28T13:19:34;9.88;;;6.00;;
58466;SDS011;44255;49.244;7.726;2023-02-28T13:22:02;9.02;;;6.65;;
58466;SDS011;44255;49.244;7.726;2023-02-28T13:29:28;7.83;;;6.07;;
58466;SDS011;44255;49.244;7.726;2023-02-28T13:34:33;8.77;;;6.38;;
58466;SDS011;44255;49.244;7.726;2023-02-28T13:47:31;9.60;;;6.40;;
58466;SDS011;44255;49.244;7.726;2023-02-28T13:55:38;8.85;;;6.95;;
58466;SDS011;44255;49.244;7.726;2023-02-28T14:04:07;7.80;;;6.25;;
58466;SDS011;44255;49.244;7.726;2023-02-28T14:06:34;9.20;;;6.23;;
58466;SDS011;44255;49.244;7.726;2023-02-28T14:09:03;11.70;;;6.40;;
58466;SDS011;44255;49.244;7.726;2023-02-28T14:11:42;8.35;;;5.80;;
58466;SDS011;44255;49.244;7.726;2023-02-28T14:14:09;8.60;;;6.60;;
58466;SDS011;44255;49.244;7.726;2023-02-28T14:16:54;14.50;;;9.20;;
58466;SDS011;44255;49.244;7.726;2023-02-28T14:19:23;8.55;;;6.10;;
58466;SDS011;44255;49.244;7.726;2023-02-28T14:27:11;7.93;;;5.90;;
58466;SDS011;44255;49.244;7.726;2023-02-28T14:29:45;8.45;;;6.32;;
58466;SDS011;44255;49.244;7.726;2023-02-28T14:37:50;10.88;;;7.22;;
58466;SDS011;44255;49.244;7.726;2023-02-28T14:40:26;10.38;;;7.40;;
58466;SDS011;44255;49.244;7.726;2023-02-28T14:42:58;8.93;;;6.60;;
58466;SDS011;44255;49.244;7.726;2023-02-28T14:45:26;10.05;;;7.60;;
58466;SDS011;44255;49.244;7.726;2023-02-28T14:47:55;8.43;;;6.55;;
58466;SDS011;44255;49.244;7.726;2023-02-28T14:50:22;11.02;;;7.75;;
58466;SDS011;44255;49.244;7.726;2023-02-28T14:52:52;9.98;;;7.60;;
58466;SDS011;44255;49.244;7.726;2023-02-28T14:55:18;9.30;;;7.22;;
58466;SDS011;44255;49.244;7.726;2023-02-28T14:57:52;10.00;;;7.07;;
58466;SDS011;44255;49.244;7.726;2023-02-28T15:00:22;10.15;;;7.43;;
58466;SDS011;44255;49.244;7.726;2023-02-28T15:02:53;10.27;;;7.20;;
58466;SDS011;44255;49.244;7.726;2023-02-28T15:05:23;9.27;;;7.20;;
58466;SDS011;44255;49.244;7.726;2023-02-28T15:07:49;10.32;;;6.88;;
58466;SDS011;44255;49.244;7.726;2023-02-28T15:10:27;7.75;;;6.53;;
58466;SDS011;44255;49.244;7.726;2023-02-28T15:12:54;11.38;;;7.22;;
58466;SDS011;44255;49.244;7.726;2023-02-28T15:15:22;10.05;;;6.85;;
58466;SDS011;44255;49.244;7.726;2023-02-28T15:17:51;8.18;;;6.65;;
58466;SDS011;44255;49.244;7.726;2023-02-28T15:20:20;9.77;;;7.05;;
58466;SDS011;44255;49.244;7.726;2023-02-28T15:22:47;10.07;;;7.63;;
58466;SDS011;44255;49.244;7.726;2023-02-28T15:25:18;8.88;;;6.45;;
58466;SDS011;44255;49.244;7.726;2023-02-28T15:27:47;10.20;;;7.88;;
58466;SDS011;44255;49.244;7.726;2023-02-28T15:30:18;10.15;;;6.75;;
58466;SDS011;44255;49.244;7.726;2023-02-28T15:33:03;10.53;;;8.00;;
58466;SDS011;44255;49.244;7.726;2023-02-28T15:35:33;10.50;;;8.00;;
58466;SDS011;44255;49.244;7.726;2023-02-28T15:38:03;10.80;;;7.43;;
58466;SDS011;44255;49.244;7.726;2023-02-28T15:40:41;10.30;;;7.60;;
58466;SDS011;44255;49.244;7.726;2023-02-28T15:43:15;11.93;;;7.20;;
58466;SDS011;44255;49.244;7.726;2023-02-28T15:45:52;10.35;;;7.30;;
58466;SDS011;44255;49.244;7.726;2023-02-28T15:48:37;11.40;;;7.35;;
58466;SDS011;44255;49.244;7.726;2023-02-28T15:51:09;11.18;;;7.70;;
58466;SDS011;44255;49.244;7.726;2023-02-28T15:56:25;11.18;;;7.47;;
58466;SDS011;44255;49.244;7.726;2023-02-28T15:58:53;10.27;;;7.30;;
58466;SDS011;44255;49.244;7.726;2023-02-28T16:01:27;10.02;;;7.50;;
58466;SDS011;44255;49.244;7.726;2023-02-28T16:03:59;10.82;;;7.47;;
58466;SDS011;44255;49.244;7.726;2023-02-28T16:06:37;10.75;;;7.90;;
58466;SDS011;44255;49.244;7.726;2023-02-28T16:09:13;9.98;;;7.88;;
58466;SDS011;44255;49.244;7.726;2023-02-28T16:11:41;8.93;;;7.10;;
58466;SDS011;44255;49.244;7.726;2023-02-28T16:14:19;11.93;;;8.18;;
58466;SDS011;44255;49.244;7.726;2023-02-28T16:16:49;9.90;;;7.32;;
58466;SDS011;44255;49.244;7.726;2023-02-28T16:19:17;13.20;;;7.65;;
58466;SDS011;44255;49.244;7.726;2023-02-28T16:24:08;9.77;;;6.55;;
58466;SDS011;44255;49.244;7.726;2023-02-28T16:26:33;10.50;;;7.90;;
58466;SDS011;44255;49.244;7.726;2023-02-28T16:29:00;11.32;;;6.20;;
58466;SDS011;44255;49.244;7.726;2023-02-28T16:31:27;12.73;;;6.65;;
58466;SDS011;44255;49.244;7.726;2023-02-28T16:36:20;11.27;;;6.88;;
58466;SDS011;44255;49.244;7.726;2023-02-28T16:38:50;16.73;;;9.10;;
58466;SDS011;44255;49.244;7.726;2023-02-28T16:41:19;17.90;;;10.98;;
58466;SDS011;44255;49.244;7.726;2023-02-28T16:43:47;16.05;;;9.23;;
58466;SDS011;44255;49.244;7.726;2023-02-28T16:46:15;13.27;;;7.38;;
58466;SDS011;44255;49.244;7.726;2023-02-28T16:48:41;14.43;;;6.78;;
58466;SDS011;44255;49.244;7.726;2023-02-28T16:51:17;11.60;;;6.45;;
58466;SDS011;44255;49.244;7.726;2023-02-28T16:53:43;12.20;;;7.60;;
58466;SDS011;44255;49.244;7.726;2023-02-28T16:56:17;12.95;;;6.25;;
58466;SDS011;44255;49.244;7.726;2023-02-28T16:58:44;11.20;;;5.95;;
58466;SDS011;44255;49.244;7.726;2023-02-28T17:01:10;12.95;;;6.82;;
58466;SDS011;44255;49.244;7.726;2023-02-28T17:03:36;11.07;;;6.40;;
58466;SDS011;44255;49.244;7.726;2023-02-28T17:06:02;12.93;;;9.43;;
58466;SDS011;44255;49.244;7.726;2023-02-28T17:10:54;11.43;;;6.90;;
58466;SDS011;44255;49.244;7.726;2023-02-28T17:13:20;14.30;;;9.63;;
58466;SDS011;44255;49.244;7.726;2023-02-28T17:15:45;14.33;;;9.40;;
58466;SDS011;44255;49.244;7.726;2023-02-28T17:18:14;14.93;;;10.82;;
58466;SDS011;44255;49.244;7.726;2023-02-28T17:20:43;15.43;;;8.63;;
58466;SDS011;44255;49.244;7.726;2023-02-28T17:23:09;16.35;;;11.35;;
58466;SDS011;44255;49.244;7.726;2023-02-28T17:25:34;15.20;;;10.53;;
58466;SDS011;44255;49.244;7.726;2023-02-28T17:27:59;18.17;;;10.77;;
58466;SDS011;44255;49.244;7.726;2023-02-28T17:30:25;15.47;;;10.23;;
58466;SDS011;44255;49.244;7.726;2023-02-28T17:32:55;12.90;;;8.23;;
58466;SDS011;44255;49.244;7.726;2023-02-28T17:37:47;13.63;;;6.90;;
58466;SDS011;44255;49.244;7.726;2023-02-28T17:40:14;14.00;;;9.93;;
58466;SDS011;44255;49.244;7.726;2023-02-28T17:42:44;13.82;;;8.60;;
58466;SDS011;44255;49.244;7.726;2023-02-28T17:45:10;14.73;;;9.00;;
58466;SDS011;44255;49.244;7.726;2023-02-28T17:47:35;18.52;;;12.82;;
58466;SDS011;44255;49.244;7.726;2023-02-28T17:50:01;16.85;;;8.68;;
58466;SDS011;44255;49.244;7.726;2023-02-28T17:52:27;21.10;;;9.93;;
58466;SDS011;44255;49.244;7.726;2023-02-28T17:54:54;18.85;;;9.95;;
58466;SDS011;44255;49.244;7.726;2023-02-28T17:57:19;15.77;;;10.48;;
58466;SDS011;44255;49.244;7.726;2023-02-28T17:59:45;14.48;;;7.00;;
58466;SDS011;44255;49.244;7.726;2023-02-28T18:02:11;18.88;;;12.07;;
58466;SDS011;44255;49.244;7.726;2023-02-28T18:04:38;16.02;;;9.38;;
58466;SDS011;44255;49.244;7.726;2023-02-28T18:07:03;16.25;;;10.60;;
58466;SDS011;44255;49.244;7.726;2023-02-28T18:09:30;17.67;;;8.88;;
58466;SDS011;44255;49.244;7.726;2023-02-28T18:11:55;22.87;;;9.63;;
58466;SDS011;44255;49.244;7.726;2023-02-28T18:14:22;17.10;;;7.68;;
58466;SDS011;44255;49.244;7.726;2023-02-28T18:16:50;16.88;;;8.18;;
58466;SDS011;44255;49.244;7.726;2023-02-28T18:19:15;17.92;;;8.82;;
58466;SDS011;44255;49.244;7.726;2023-02-28T18:21:45;20.73;;;10.52;;
58466;SDS011;44255;49.244;7.726;2023-02-28T18:24:12;18.92;;;8.43;;
58466;SDS011;44255;49.244;7.726;2023-02-28T18:26:38;19.08;;;9.32;;
58466;SDS011;44255;49.244;7.726;2023-02-28T18:31:30;35.60;;;13.27;;
58466;SDS011;44255;49.244;7.726;2023-02-28T18:33:56;21.90;;;9.73;;
58466;SDS011;44255;49.244;7.726;2023-02-28T18:36:22;35.00;;;17.60;;
58466;SDS011;44255;49.244;7.726;2023-02-28T18:38:47;36.65;;;20.27;;
58466;SDS011;44255;49.244;7.726;2023-02-28T18:41:14;34.97;;;16.85;;
58466;SDS011;44255;49.244;7.726;2023-02-28T18:46:10;27.35;;;13.88;;
58466;SDS011;44255;49.244;7.726;2023-02-28T18:48:37;23.50;;;11.52;;
58466;SDS011;44255;49.244;7.726;2023-02-28T18:51:07;17.05;;;9.82;;
58466;SDS011;44255;49.244;7.726;2023-02-28T18:53:33;23.35;;;9.85;;
58466;SDS011;44255;49.244;7.726;2023-02-28T18:56:00;21.33;;;10.75;;
58466;SDS011;44255;49.244;7.726;2023-02-28T18:58:25;21.77;;;10.90;;
58466;SDS011;44255;49.244;7.726;2023-02-28T19:00:51;24.13;;;12.38;;
58466;SDS011;44255;49.244;7.726;2023-02-28T19:03:16;24.63;;;10.70;;
58466;SDS011;44255;49.244;7.726;2023-02-28T19:05:42;22.53;;;10.53;;
58466;SDS011;44255;49.244;7.726;2023-02-28T19:08:07;23.33;;;10.90;;
58466;SDS011;44255;49.244;7.726;2023-02-28T19:10:32;20.80;;;9.48;;
58466;SDS011;44255;49.244;7.726;2023-02-28T19:12:58;21.13;;;9.97;;
58466;SDS011;44255;49.244;7.726;2023-02-28T19:15:23;26.03;;;11.93;;
58466;SDS011;44255;49.244;7.726;2023-02-28T19:17:48;18.67;;;10.30;;
58466;SDS011;44255;49.244;7.726;2023-02-28T19:20:13;25.27;;;11.27;;
58466;SDS011;44255;49.244;7.726;2023-02-28T19:22:39;25.20;;;12.10;;
58466;SDS011;44255;49.244;7.726;2023-02-28T19:25:05;20.70;;;11.43;;
58466;SDS011;44255;49.244;7.726;2023-02-28T19:27:31;29.60;;;13.88;;
58466;SDS011;44255;49.244;7.726;2023-02-28T19:29:56;30.80;;;15.00;;
58466;SDS011;44255;49.244;7.726;2023-02-28T19:32:23;40.15;;;18.17;;
58466;SDS011;44255;49.244;7.726;2023-02-28T19:34:49;30.42;;;14.32;;
58466;SDS011;44255;49.244;7.726;2023-02-28T19:37:14;19.10;;;10.30;;
58466;SDS011;44255;49.244;7.726;2023-02-28T19:39:42;19.33;;;6.28;;
58466;SDS011;44255;49.244;7.726;2023-02-28T19:42:26;10.57;;;6.47;;
58466;SDS011;44255;49.244;7.726;2023-02-28T19:44:56;14.45;;;6.97;;
58466;SDS011;44255;49.244;7.726;2023-02-28T19:47:22;14.98;;;7.10;;
58466;SDS011;44255;49.244;7.726;2023-02-28T19:49:47;15.25;;;6.75;;
58466;SDS011;44255;49.244;7.726;2023-02-28T19:52:12;15.10;;;7.32;;
58466;SDS011;44255;49.244;7.726;2023-02-28T19:54:38;12.98;;;6.70;;
58466;SDS011;44255;49.244;7.726;2023-02-28T19:57:03;13.50;;;7.63;;
58466;SDS011;44255;49.244;7.726;2023-02-28T20:01:53;14.20;;;7.50;;
58466;SDS011;44255;49.244;7.726;2023-02-28T20:04:20;17.55;;;9.40;;
58466;SDS011;44255;49.244;7.726;2023-02-28T20:06:50;19.65;;;9.75;;
58466;SDS011;44255;49.244;7.726;2023-02-28T20:09:16;19.52;;;8.75;;
58466;SDS011;44255;49.244;7.726;2023-02-28T20:11:41;14.70;;;9.00;;
58466;SDS011;44255;49.244;7.726;2023-02-28T20:14:08;17.42;;;8.73;;
58466;SDS011;44255;49.244;7.726;2023-02-28T20:16:34;22.65;;;8.52;;
58466;SDS011;44255;49.244;7.726;2023-02-28T20:18:59;18.35;;;7.97;;
58466;SDS011;44255;49.244;7.726;2023-02-28T20:21:25;12.77;;;6.82;;
58466;SDS011;44255;49.244;7.726;2023-02-28T20:23:50;13.23;;;6.32;;
58466;SDS011;44255;49.244;7.726;2023-02-28T20:28:44;9.88;;;5.75;;
58466;SDS011;44255;49.244;7.726;2023-02-28T20:34:02;11.85;;;5.18;;
58466;SDS011;44255;49.244;7.726;2023-02-28T20:36:28;9.77;;;5.47;;
58466;SDS011;44255;49.244;7.726;2023-02-28T20:38:54;12.82;;;6.05;;
58466;SDS011;44255;49.244;7.726;2023-02-28T20:41:20;10.38;;;5.57;;
58466;SDS011;44255;49.244;7.726;2023-02-28T20:43:51;12.18;;;5.57;;
58466;SDS011;44255;49.244;7.726;2023-02-28T20:46:18;12.48;;;5.30;;
58466;SDS011;44255;49.244;7.726;2023-02-28T20:48:44;11.60;;;5.55;;
58466;SDS011;44255;49.244;7.726;2023-02-28T20:51:09;14.35;;;6.30;;
58466;SDS011;44255;49.244;7.726;2023-02-28T20:53:35;14.45;;;7.63;;
58466;SDS011;44255;49.244;7.726;2023-02-28T20:58:30;18.88;;;8.88;;
58466;SDS011;44255;49.244;7.726;2023-02-28T21:01:07;18.20;;;8.73;;
58466;SDS011;44255;49.244;7.726;2023-02-28T21:03:37;16.92;;;7.80;;
58466;SDS011;44255;49.244;7.726;2023-02-28T21:06:04;18.65;;;8.82;;
58466;SDS011;44255;49.244;7.726;2023-02-28T21:10:55;26.67;;;11.38;;
58466;SDS011;44255;49.244;7.726;2023-02-28T21:13:20;26.20;;;11.90;;
58466;SDS011;44255;49.244;7.726;2023-02-28T21:18:11;20.17;;;9.88;;
58466;SDS011;44255;49.244;7.726;2023-02-28T21:23:01;23.77;;;10.20;;
58466;SDS011;44255;49.244;7.726;2023-02-28T21:27:52;19.60;;;9.73;;
58466;SDS011;44255;49.244;7.726;2023-02-28T21:30:19;23.33;;;11.00;;
58466;SDS011;44255;49.244;7.726;2023-02-28T21:35:10;15.45;;;7.90;;
58466;SDS011;44255;49.244;7.726;2023-02-28T21:40:02;12.63;;;6.95;;
58466;SDS011;44255;49.244;7.726;2023-02-28T21:44:53;18.45;;;6.82;;
58466;SDS011;44255;49.244;7.726;2023-02-28T21:47:21;22.15;;;10.43;;
58466;SDS011;44255;49.244;7.726;2023-02-28T21:52:11;15.18;;;6.47;;
58466;SDS011;44255;49.244;7.726;2023-02-28T21:57:02;11.98;;;4.88;;
